sensor_id;sensor_type;location;lat;lon;timestamp;temperature;humidity
21592;DHT22;10958;50.892;3.992;2023-06-24T00:00:43;20.30;99.90
21592;DHT22;10958;50.892;3.992;2023-06-24T00:03:11;20.20;99.90
21592;DHT22;10958;50.892;3.992;2023-06-24T00:05:37;20.10;99.90
21592;DHT22;10958;50.892;3.992;2023-06-24T00:08:04;20.00;99.90
21592;DHT22;10958;50.892;3.992;2023-06-24T00:10:32;20.00;99.90
21592;DHT22;10958;50.892;3.992;2023-06-24T00:12:58;20.10;99.90
21592;DHT22;10958;50.892;3.992;2023-06-24T00:15:27;20.20;99.90
21592;DHT22;10958;50.892;3.992;2023-06-24T00:17:52;20.20;99.90
21592;DHT22;10958;50.892;3.992;2023-06-24T00:20:20;20.00;99.90
21592;DHT22;10958;50.892;3.992;2023-06-24T00:22:49;19.90;99.90
21592;DHT22;10958;50.892;3.992;2023-06-24T00:25:15;19.80;99.90
21592;DHT22;10958;50.892;3.992;2023-06-24T00:27:41;19.70;99.90
21592;DHT22;10958;50.892;3.992;2023-06-24T00:30:08;19.60;99.90
21592;DHT22;10958;50.892;3.992;2023-06-24T00:32:37;19.80;99.90
21592;DHT22;10958;50.892;3.992;2023-06-24T00:35:02;19.90;99.90
21592;DHT22;10958;50.892;3.992;2023-06-24T00:37:28;20.00;99.90
21592;DHT22;10958;50.892;3.992;2023-06-24T00:39:54;20.00;99.90
21592;DHT22;10958;50.892;3.992;2023-06-24T00:42:20;20.00;99.90
21592;DHT22;10958;50.892;3.992;2023-06-24T00:44:46;19.90;99.90
21592;DHT22;10958;50.892;3.992;2023-06-24T00:47:13;19.80;99.90
21592;DHT22;10958;50.892;3.992;2023-06-24T00:49:39;19.80;99.90
21592;DHT22;10958;50.892;3.992;2023-06-24T00:52:05;19.80;99.90
21592;DHT22;10958;50.892;3.992;2023-06-24T00:54:33;19.80;99.90
21592;DHT22;10958;50.892;3.992;2023-06-24T00:56:59;19.70;99.90
21592;DHT22;10958;50.892;3.992;2023-06-24T00:59:28;19.70;99.90
21592;DHT22;10958;50.892;3.992;2023-06-24T01:01:55;19.70;99.90
21592;DHT22;10958;50.892;3.992;2023-06-24T01:04:27;19.80;99.90
21592;DHT22;10958;50.892;3.992;2023-06-24T01:07:00;19.80;99.90
21592;DHT22;10958;50.892;3.992;2023-06-24T01:09:27;19.80;99.90
21592;DHT22;10958;50.892;3.992;2023-06-24T01:14:08;19.60;99.90
21592;DHT22;10958;50.892;3.992;2023-06-24T01:20:01;19.00;99.90
21592;DHT22;10958;50.892;3.992;2023-06-24T01:31:43;18.80;99.90
21592;DHT22;10958;50.892;3.992;2023-06-24T01:36:51;18.80;99.90
21592;DHT22;10958;50.892;3.992;2023-06-24T01:39:22;19.00;99.90
21592;DHT22;10958;50.892;3.992;2023-06-24T01:41:56;19.10;99.90
21592;DHT22;10958;50.892;3.992;2023-06-24T01:44:25;19.10;99.90
21592;DHT22;10958;50.892;3.992;2023-06-24T01:46:55;19.10;99.90
21592;DHT22;10958;50.892;3.992;2023-06-24T01:49:23;19.10;99.90
21592;DHT22;10958;50.892;3.992;2023-06-24T01:51:58;19.00;99.90
21592;DHT22;10958;50.892;3.992;2023-06-24T01:54:26;18.90;99.90
21592;DHT22;10958;50.892;3.992;2023-06-24T01:56:57;18.90;99.90
21592;DHT22;10958;50.892;3.992;2023-06-24T01:59:25;18.90;99.90
21592;DHT22;10958;50.892;3.992;2023-06-24T02:01:54;18.70;99.90
21592;DHT22;10958;50.892;3.992;2023-06-24T02:04:21;18.40;99.90
21592;DHT22;10958;50.892;3.992;2023-06-24T02:06:49;18.50;99.90
21592;DHT22;10958;50.892;3.992;2023-06-24T02:09:17;18.70;99.90
21592;DHT22;10958;50.892;3.992;2023-06-24T02:11:44;18.70;99.90
21592;DHT22;10958;50.892;3.992;2023-06-24T02:14:11;18.60;99.90
21592;DHT22;10958;50.892;3.992;2023-06-24T02:16:39;18.60;99.90
21592;DHT22;10958;50.892;3.992;2023-06-24T02:19:06;18.50;99.90
21592;DHT22;10958;50.892;3.992;2023-06-24T02:21:34;18.40;99.90
21592;DHT22;10958;50.892;3.992;2023-06-24T02:24:03;18.40;99.90
21592;DHT22;10958;50.892;3.992;2023-06-24T02:26:30;18.20;99.90
21592;DHT22;10958;50.892;3.992;2023-06-24T02:28:57;18.30;99.90
21592;DHT22;10958;50.892;3.992;2023-06-24T02:31:23;18.40;99.90
21592;DHT22;10958;50.892;3.992;2023-06-24T02:33:49;18.50;99.90
21592;DHT22;10958;50.892;3.992;2023-06-24T02:36:15;18.50;99.90
21592;DHT22;10958;50.892;3.992;2023-06-24T02:38:41;18.50;99.90
21592;DHT22;10958;50.892;3.992;2023-06-24T02:41:07;18.40;99.90
21592;DHT22;10958;50.892;3.992;2023-06-24T02:43:33;18.40;99.90
21592;DHT22;10958;50.892;3.992;2023-06-24T02:46:01;18.00;99.90
21592;DHT22;10958;50.892;3.992;2023-06-24T02:48:30;18.00;99.90
21592;DHT22;10958;50.892;3.992;2023-06-24T02:50:57;17.90;99.90
21592;DHT22;10958;50.892;3.992;2023-06-24T02:53:24;17.90;99.90
21592;DHT22;10958;50.892;3.992;2023-06-24T02:55:50;17.80;99.90
21592;DHT22;10958;50.892;3.992;2023-06-24T02:58:16;17.90;99.90
21592;DHT22;10958;50.892;3.992;2023-06-24T03:00:44;18.00;99.90
21592;DHT22;10958;50.892;3.992;2023-06-24T03:03:10;17.90;99.90
21592;DHT22;10958;50.892;3.992;2023-06-24T03:05:37;17.80;99.90
21592;DHT22;10958;50.892;3.992;2023-06-24T03:08:04;17.80;99.90
21592;DHT22;10958;50.892;3.992;2023-06-24T03:10:32;17.80;99.90
21592;DHT22;10958;50.892;3.992;2023-06-24T03:12:58;17.80;99.90
21592;DHT22;10958;50.892;3.992;2023-06-24T03:15:23;18.00;99.90
21592;DHT22;10958;50.892;3.992;2023-06-24T03:17:50;18.10;99.90
21592;DHT22;10958;50.892;3.992;2023-06-24T03:20:16;18.20;99.90
21592;DHT22;10958;50.892;3.992;2023-06-24T03:22:42;18.20;99.90
21592;DHT22;10958;50.892;3.992;2023-06-24T03:25:08;18.10;99.90
21592;DHT22;10958;50.892;3.992;2023-06-24T03:27:34;18.10;99.90
21592;DHT22;10958;50.892;3.992;2023-06-24T03:30:00;18.20;99.90
21592;DHT22;10958;50.892;3.992;2023-06-24T03:32:26;18.20;99.90
21592;DHT22;10958;50.892;3.992;2023-06-24T03:34:52;18.20;99.90
21592;DHT22;10958;50.892;3.992;2023-06-24T03:37:18;18.10;99.90
21592;DHT22;10958;50.892;3.992;2023-06-24T03:39:44;18.10;99.90
21592;DHT22;10958;50.892;3.992;2023-06-24T03:42:10;18.00;99.90
21592;DHT22;10958;50.892;3.992;2023-06-24T03:44:35;18.00;99.90
21592;DHT22;10958;50.892;3.992;2023-06-24T03:47:01;18.00;99.90
21592;DHT22;10958;50.892;3.992;2023-06-24T03:49:26;18.00;99.90
21592;DHT22;10958;50.892;3.992;2023-06-24T03:51:52;17.90;99.90
21592;DHT22;10958;50.892;3.992;2023-06-24T03:54:18;18.00;99.90
21592;DHT22;10958;50.892;3.992;2023-06-24T03:56:44;18.10;99.90
21592;DHT22;10958;50.892;3.992;2023-06-24T03:59:09;18.10;99.90
21592;DHT22;10958;50.892;3.992;2023-06-24T04:01:38;18.00;99.90
21592;DHT22;10958;50.892;3.992;2023-06-24T04:04:03;18.10;99.90
21592;DHT22;10958;50.892;3.992;2023-06-24T04:06:29;18.10;99.90
21592;DHT22;10958;50.892;3.992;2023-06-24T04:08:55;18.00;99.90
21592;DHT22;10958;50.892;3.992;2023-06-24T04:11:21;18.00;99.90
21592;DHT22;10958;50.892;3.992;2023-06-24T04:13:47;18.10;99.90
21592;DHT22;10958;50.892;3.992;2023-06-24T04:16:14;18.10;99.90
21592;DHT22;10958;50.892;3.992;2023-06-24T04:18:40;18.00;99.90
21592;DHT22;10958;50.892;3.992;2023-06-24T04:21:08;18.10;99.90
21592;DHT22;10958;50.892;3.992;2023-06-24T04:23:34;18.10;99.90
21592;DHT22;10958;50.892;3.992;2023-06-24T04:25:59;18.10;99.90
21592;DHT22;10958;50.892;3.992;2023-06-24T04:28:25;18.10;99.90
21592;DHT22;10958;50.892;3.992;2023-06-24T04:30:52;18.10;99.90
21592;DHT22;10958;50.892;3.992;2023-06-24T04:33:17;17.80;99.90
21592;DHT22;10958;50.892;3.992;2023-06-24T04:35:44;17.90;99.90
21592;DHT22;10958;50.892;3.992;2023-06-24T04:38:12;17.90;99.90
21592;DHT22;10958;50.892;3.992;2023-06-24T04:40:43;18.00;99.90
21592;DHT22;10958;50.892;3.992;2023-06-24T04:43:09;18.10;99.90
21592;DHT22;10958;50.892;3.992;2023-06-24T04:45:37;18.00;99.90
21592;DHT22;10958;50.892;3.992;2023-06-24T04:48:02;18.00;99.90
21592;DHT22;10958;50.892;3.992;2023-06-24T04:50:30;17.70;99.90
21592;DHT22;10958;50.892;3.992;2023-06-24T04:52:59;17.70;99.90
21592;DHT22;10958;50.892;3.992;2023-06-24T04:55:27;17.90;99.90
21592;DHT22;10958;50.892;3.992;2023-06-24T04:57:55;17.90;99.90
21592;DHT22;10958;50.892;3.992;2023-06-24T05:00:21;17.80;99.90
21592;DHT22;10958;50.892;3.992;2023-06-24T05:02:49;17.80;99.90
21592;DHT22;10958;50.892;3.992;2023-06-24T05:05:18;17.90;99.90
21592;DHT22;10958;50.892;3.992;2023-06-24T05:07:48;17.90;99.90
21592;DHT22;10958;50.892;3.992;2023-06-24T05:10:14;18.00;99.90
21592;DHT22;10958;50.892;3.992;2023-06-24T05:12:40;18.10;99.90
21592;DHT22;10958;50.892;3.992;2023-06-24T05:15:06;18.10;99.90
21592;DHT22;10958;50.892;3.992;2023-06-24T05:17:32;18.20;99.90
21592;DHT22;10958;50.892;3.992;2023-06-24T05:19:58;18.30;99.90
21592;DHT22;10958;50.892;3.992;2023-06-24T05:22:24;18.30;99.90
21592;DHT22;10958;50.892;3.992;2023-06-24T05:24:49;18.70;99.90
21592;DHT22;10958;50.892;3.992;2023-06-24T05:27:18;19.40;99.90
21592;DHT22;10958;50.892;3.992;2023-06-24T05:29:43;20.30;99.90
21592;DHT22;10958;50.892;3.992;2023-06-24T05:32:09;21.10;99.90
21592;DHT22;10958;50.892;3.992;2023-06-24T05:34:35;21.70;99.90
21592;DHT22;10958;50.892;3.992;2023-06-24T05:37:01;22.70;99.90
21592;DHT22;10958;50.892;3.992;2023-06-24T05:39:27;23.20;99.90
21592;DHT22;10958;50.892;3.992;2023-06-24T05:41:53;23.40;99.90
21592;DHT22;10958;50.892;3.992;2023-06-24T05:44:18;23.50;99.90
21592;DHT22;10958;50.892;3.992;2023-06-24T05:46:45;24.00;99.90
21592;DHT22;10958;50.892;3.992;2023-06-24T05:49:13;24.20;99.90
21592;DHT22;10958;50.892;3.992;2023-06-24T05:51:41;24.80;99.90
21592;DHT22;10958;50.892;3.992;2023-06-24T05:54:06;25.70;99.90
21592;DHT22;10958;50.892;3.992;2023-06-24T05:56:52;26.50;99.90
21592;DHT22;10958;50.892;3.992;2023-06-24T05:59:17;26.60;99.90
21592;DHT22;10958;50.892;3.992;2023-06-24T06:01:43;27.10;99.90
21592;DHT22;10958;50.892;3.992;2023-06-24T06:04:09;27.00;99.90
21592;DHT22;10958;50.892;3.992;2023-06-24T06:06:34;27.20;99.90
21592;DHT22;10958;50.892;3.992;2023-06-24T06:09:03;27.20;99.90
21592;DHT22;10958;50.892;3.992;2023-06-24T06:11:28;27.30;99.90
21592;DHT22;10958;50.892;3.992;2023-06-24T06:13:54;27.80;99.90
21592;DHT22;10958;50.892;3.992;2023-06-24T06:16:20;27.70;99.90
21592;DHT22;10958;50.892;3.992;2023-06-24T06:18:45;27.60;99.90
21592;DHT22;10958;50.892;3.992;2023-06-24T06:21:11;28.10;99.90
21592;DHT22;10958;50.892;3.992;2023-06-24T06:23:37;29.00;99.90
21592;DHT22;10958;50.892;3.992;2023-06-24T06:26:02;29.80;99.90
21592;DHT22;10958;50.892;3.992;2023-06-24T06:28:28;29.00;99.90
21592;DHT22;10958;50.892;3.992;2023-06-24T06:30:54;29.10;99.90
21592;DHT22;10958;50.892;3.992;2023-06-24T06:33:22;29.60;99.90
21592;DHT22;10958;50.892;3.992;2023-06-24T06:35:48;29.00;99.90
21592;DHT22;10958;50.892;3.992;2023-06-24T06:38:14;28.90;99.90
21592;DHT22;10958;50.892;3.992;2023-06-24T06:40:42;29.20;99.90
21592;DHT22;10958;50.892;3.992;2023-06-24T06:43:08;29.50;99.90
21592;DHT22;10958;50.892;3.992;2023-06-24T06:45:36;29.40;99.90
21592;DHT22;10958;50.892;3.992;2023-06-24T06:48:02;29.40;99.90
21592;DHT22;10958;50.892;3.992;2023-06-24T06:50:32;28.80;99.90
21592;DHT22;10958;50.892;3.992;2023-06-24T06:52:58;29.20;99.90
21592;DHT22;10958;50.892;3.992;2023-06-24T06:55:24;29.10;99.90
21592;DHT22;10958;50.892;3.992;2023-06-24T06:57:50;29.50;99.90
21592;DHT22;10958;50.892;3.992;2023-06-24T07:00:16;29.40;99.90
21592;DHT22;10958;50.892;3.992;2023-06-24T07:02:42;29.80;99.90
21592;DHT22;10958;50.892;3.992;2023-06-24T07:05:08;30.30;99.90
21592;DHT22;10958;50.892;3.992;2023-06-24T07:07:38;29.50;99.90
21592;DHT22;10958;50.892;3.992;2023-06-24T07:10:04;29.80;99.90
21592;DHT22;10958;50.892;3.992;2023-06-24T07:12:33;29.90;99.90
21592;DHT22;10958;50.892;3.992;2023-06-24T07:14:58;30.40;99.90
21592;DHT22;10958;50.892;3.992;2023-06-24T07:17:24;30.90;99.90
21592;DHT22;10958;50.892;3.992;2023-06-24T07:19:50;31.30;99.90
21592;DHT22;10958;50.892;3.992;2023-06-24T07:22:15;32.10;99.90
21592;DHT22;10958;50.892;3.992;2023-06-24T07:24:43;31.20;99.90
21592;DHT22;10958;50.892;3.992;2023-06-24T07:27:09;31.80;99.90
21592;DHT22;10958;50.892;3.992;2023-06-24T07:29:36;32.50;99.90
21592;DHT22;10958;50.892;3.992;2023-06-24T07:32:02;32.40;99.90
21592;DHT22;10958;50.892;3.992;2023-06-24T07:34:29;31.30;99.90
21592;DHT22;10958;50.892;3.992;2023-06-24T07:36:58;31.30;99.90
21592;DHT22;10958;50.892;3.992;2023-06-24T07:39:26;32.00;99.90
21592;DHT22;10958;50.892;3.992;2023-06-24T07:41:52;32.20;99.90
21592;DHT22;10958;50.892;3.992;2023-06-24T07:44:18;32.70;99.90
21592;DHT22;10958;50.892;3.992;2023-06-24T07:46:45;32.60;99.90
21592;DHT22;10958;50.892;3.992;2023-06-24T07:49:12;32.40;99.90
21592;DHT22;10958;50.892;3.992;2023-06-24T07:51:38;31.90;99.90
21592;DHT22;10958;50.892;3.992;2023-06-24T07:54:04;32.00;99.90
21592;DHT22;10958;50.892;3.992;2023-06-24T07:56:30;31.70;99.90
21592;DHT22;10958;50.892;3.992;2023-06-24T07:58:55;32.20;99.90
21592;DHT22;10958;50.892;3.992;2023-06-24T08:01:21;32.60;99.90
21592;DHT22;10958;50.892;3.992;2023-06-24T08:03:47;32.40;99.90
21592;DHT22;10958;50.892;3.992;2023-06-24T08:06:13;33.30;99.90
21592;DHT22;10958;50.892;3.992;2023-06-24T08:08:44;33.60;99.90
21592;DHT22;10958;50.892;3.992;2023-06-24T08:11:11;33.80;99.90
21592;DHT22;10958;50.892;3.992;2023-06-24T08:13:38;34.10;99.90
21592;DHT22;10958;50.892;3.992;2023-06-24T08:16:04;34.10;99.90
21592;DHT22;10958;50.892;3.992;2023-06-24T08:18:32;34.10;99.90
21592;DHT22;10958;50.892;3.992;2023-06-24T08:20:58;33.30;99.90
21592;DHT22;10958;50.892;3.992;2023-06-24T08:23:24;32.70;99.90
21592;DHT22;10958;50.892;3.992;2023-06-24T08:25:51;33.40;99.90
21592;DHT22;10958;50.892;3.992;2023-06-24T08:28:16;33.50;99.90
21592;DHT22;10958;50.892;3.992;2023-06-24T08:30:42;33.80;99.90
21592;DHT22;10958;50.892;3.992;2023-06-24T08:33:08;34.20;99.90
21592;DHT22;10958;50.892;3.992;2023-06-24T08:35:35;34.10;99.90
21592;DHT22;10958;50.892;3.992;2023-06-24T08:38:01;34.30;99.90
21592;DHT22;10958;50.892;3.992;2023-06-24T08:40:29;34.30;99.90
21592;DHT22;10958;50.892;3.992;2023-06-24T08:42:54;34.00;99.90
21592;DHT22;10958;50.892;3.992;2023-06-24T08:45:21;33.40;99.90
21592;DHT22;10958;50.892;3.992;2023-06-24T08:47:47;33.80;99.90
21592;DHT22;10958;50.892;3.992;2023-06-24T08:50:15;34.50;99.90
21592;DHT22;10958;50.892;3.992;2023-06-24T08:52:44;34.20;99.90
21592;DHT22;10958;50.892;3.992;2023-06-24T08:55:13;34.40;99.90
21592;DHT22;10958;50.892;3.992;2023-06-24T08:57:41;34.60;99.90
21592;DHT22;10958;50.892;3.992;2023-06-24T09:00:08;34.40;99.90
21592;DHT22;10958;50.892;3.992;2023-06-24T09:02:40;34.20;99.90
21592;DHT22;10958;50.892;3.992;2023-06-24T09:05:07;34.00;99.90
21592;DHT22;10958;50.892;3.992;2023-06-24T09:07:33;33.80;99.90
21592;DHT22;10958;50.892;3.992;2023-06-24T09:10:01;34.00;99.90
21592;DHT22;10958;50.892;3.992;2023-06-24T09:12:27;34.00;99.90
21592;DHT22;10958;50.892;3.992;2023-06-24T09:14:54;33.10;99.90
21592;DHT22;10958;50.892;3.992;2023-06-24T09:17:20;33.40;99.90
21592;DHT22;10958;50.892;3.992;2023-06-24T09:19:48;33.40;99.90
21592;DHT22;10958;50.892;3.992;2023-06-24T09:22:14;33.80;99.90
21592;DHT22;10958;50.892;3.992;2023-06-24T09:24:43;34.20;99.90
21592;DHT22;10958;50.892;3.992;2023-06-24T09:27:12;33.60;99.90
21592;DHT22;10958;50.892;3.992;2023-06-24T09:29:39;33.90;99.90
21592;DHT22;10958;50.892;3.992;2023-06-24T09:32:06;33.50;99.90
21592;DHT22;10958;50.892;3.992;2023-06-24T09:34:32;33.20;99.90
21592;DHT22;10958;50.892;3.992;2023-06-24T09:37:01;33.60;99.90
21592;DHT22;10958;50.892;3.992;2023-06-24T09:39:28;33.60;99.90
21592;DHT22;10958;50.892;3.992;2023-06-24T09:41:58;33.30;99.90
21592;DHT22;10958;50.892;3.992;2023-06-24T09:44:24;32.50;99.90
21592;DHT22;10958;50.892;3.992;2023-06-24T09:46:50;33.10;99.90
21592;DHT22;10958;50.892;3.992;2023-06-24T09:49:16;32.70;99.90
21592;DHT22;10958;50.892;3.992;2023-06-24T09:51:46;32.90;99.90
21592;DHT22;10958;50.892;3.992;2023-06-24T09:54:14;33.20;99.90
21592;DHT22;10958;50.892;3.992;2023-06-24T09:56:48;33.40;99.90
21592;DHT22;10958;50.892;3.992;2023-06-24T09:59:15;33.60;99.90
21592;DHT22;10958;50.892;3.992;2023-06-24T10:01:43;33.60;99.90
21592;DHT22;10958;50.892;3.992;2023-06-24T10:04:20;33.40;99.90
21592;DHT22;10958;50.892;3.992;2023-06-24T10:06:48;32.70;99.90
21592;DHT22;10958;50.892;3.992;2023-06-24T10:09:14;32.80;99.90
21592;DHT22;10958;50.892;3.992;2023-06-24T10:11:42;33.20;99.90
21592;DHT22;10958;50.892;3.992;2023-06-24T10:14:13;33.20;99.90
21592;DHT22;10958;50.892;3.992;2023-06-24T10:16:42;32.40;99.90
21592;DHT22;10958;50.892;3.992;2023-06-24T10:19:08;32.70;99.90
21592;DHT22;10958;50.892;3.992;2023-06-24T10:24:20;33.10;99.90
21592;DHT22;10958;50.892;3.992;2023-06-24T10:26:53;33.30;99.90
21592;DHT22;10958;50.892;3.992;2023-06-24T10:29:18;33.00;99.90
21592;DHT22;10958;50.892;3.992;2023-06-24T10:32:01;33.00;99.90
21592;DHT22;10958;50.892;3.992;2023-06-24T10:34:31;32.90;99.90
21592;DHT22;10958;50.892;3.992;2023-06-24T10:37:03;32.20;99.90
21592;DHT22;10958;50.892;3.992;2023-06-24T10:42:39;31.70;99.90
21592;DHT22;10958;50.892;3.992;2023-06-24T10:47:35;30.80;99.90
21592;DHT22;10958;50.892;3.992;2023-06-24T10:50:01;30.20;99.90
21592;DHT22;10958;50.892;3.992;2023-06-24T10:52:27;30.30;99.90
21592;DHT22;10958;50.892;3.992;2023-06-24T10:54:57;30.20;99.90
21592;DHT22;10958;50.892;3.992;2023-06-24T10:57:25;30.10;99.90
21592;DHT22;10958;50.892;3.992;2023-06-24T10:59:53;30.30;99.90
21592;DHT22;10958;50.892;3.992;2023-06-24T11:02:23;30.00;99.90
21592;DHT22;10958;50.892;3.992;2023-06-24T11:04:54;29.60;99.90
21592;DHT22;10958;50.892;3.992;2023-06-24T11:07:22;29.70;99.90
21592;DHT22;10958;50.892;3.992;2023-06-24T11:09:52;30.00;99.90
21592;DHT22;10958;50.892;3.992;2023-06-24T11:12:19;29.80;99.90
21592;DHT22;10958;50.892;3.992;2023-06-24T11:14:48;29.60;99.90
21592;DHT22;10958;50.892;3.992;2023-06-24T11:17:19;29.50;99.90
21592;DHT22;10958;50.892;3.992;2023-06-24T11:19:45;29.30;99.90
21592;DHT22;10958;50.892;3.992;2023-06-24T11:22:14;29.10;99.90
21592;DHT22;10958;50.892;3.992;2023-06-24T11:24:43;29.00;99.90
21592;DHT22;10958;50.892;3.992;2023-06-24T11:27:10;29.10;99.90
21592;DHT22;10958;50.892;3.992;2023-06-24T11:29:35;29.30;99.90
21592;DHT22;10958;50.892;3.992;2023-06-24T11:32:02;29.40;99.90
21592;DHT22;10958;50.892;3.992;2023-06-24T11:34:33;29.60;99.90
21592;DHT22;10958;50.892;3.992;2023-06-24T11:37:08;29.20;99.90
21592;DHT22;10958;50.892;3.992;2023-06-24T11:39:34;29.20;99.90
21592;DHT22;10958;50.892;3.992;2023-06-24T11:42:01;28.90;99.90
21592;DHT22;10958;50.892;3.992;2023-06-24T11:44:31;29.20;99.90
21592;DHT22;10958;50.892;3.992;2023-06-24T11:47:04;29.20;99.90
21592;DHT22;10958;50.892;3.992;2023-06-24T11:49:30;29.20;99.90
21592;DHT22;10958;50.892;3.992;2023-06-24T11:51:56;29.30;99.90
21592;DHT22;10958;50.892;3.992;2023-06-24T11:54:22;29.10;99.90
21592;DHT22;10958;50.892;3.992;2023-06-24T11:56:50;28.70;99.90
21592;DHT22;10958;50.892;3.992;2023-06-24T11:59:29;29.00;99.90
21592;DHT22;10958;50.892;3.992;2023-06-24T12:01:57;29.10;99.90
21592;DHT22;10958;50.892;3.992;2023-06-24T12:04:30;29.40;99.90
21592;DHT22;10958;50.892;3.992;2023-06-24T12:06:57;29.20;99.90
21592;DHT22;10958;50.892;3.992;2023-06-24T12:09:23;28.80;99.90
21592;DHT22;10958;50.892;3.992;2023-06-24T12:11:52;28.50;99.90
21592;DHT22;10958;50.892;3.992;2023-06-24T12:14:19;28.60;99.90
21592;DHT22;10958;50.892;3.992;2023-06-24T12:16:44;28.80;99.90
21592;DHT22;10958;50.892;3.992;2023-06-24T12:19:10;28.70;99.90
21592;DHT22;10958;50.892;3.992;2023-06-24T12:21:39;28.80;99.90
21592;DHT22;10958;50.892;3.992;2023-06-24T12:24:08;29.00;99.90
21592;DHT22;10958;50.892;3.992;2023-06-24T12:26:34;29.10;99.90
21592;DHT22;10958;50.892;3.992;2023-06-24T12:28:59;29.10;99.90
21592;DHT22;10958;50.892;3.992;2023-06-24T12:31:25;28.90;99.90
21592;DHT22;10958;50.892;3.992;2023-06-24T12:33:54;28.80;99.90
21592;DHT22;10958;50.892;3.992;2023-06-24T12:36:20;29.00;99.90
21592;DHT22;10958;50.892;3.992;2023-06-24T12:38:46;28.70;99.90
21592;DHT22;10958;50.892;3.992;2023-06-24T12:41:12;28.30;99.90
21592;DHT22;10958;50.892;3.992;2023-06-24T12:43:40;28.60;99.90
21592;DHT22;10958;50.892;3.992;2023-06-24T12:46:09;28.80;99.90
21592;DHT22;10958;50.892;3.992;2023-06-24T12:48:37;29.10;99.90
21592;DHT22;10958;50.892;3.992;2023-06-24T12:51:09;29.30;99.90
21592;DHT22;10958;50.892;3.992;2023-06-24T12:53:44;29.20;99.90
21592;DHT22;10958;50.892;3.992;2023-06-24T12:56:23;29.10;99.90
21592;DHT22;10958;50.892;3.992;2023-06-24T12:59:20;28.70;99.90
21592;DHT22;10958;50.892;3.992;2023-06-24T13:01:49;29.00;99.90
21592;DHT22;10958;50.892;3.992;2023-06-24T13:04:18;29.10;99.90
21592;DHT22;10958;50.892;3.992;2023-06-24T13:06:58;29.50;99.90
21592;DHT22;10958;50.892;3.992;2023-06-24T13:09:37;29.60;99.90
21592;DHT22;10958;50.892;3.992;2023-06-24T13:25:21;29.70;99.90
21592;DHT22;10958;50.892;3.992;2023-06-24T13:27:47;29.80;99.90
21592;DHT22;10958;50.892;3.992;2023-06-24T13:30:35;29.80;99.90
21592;DHT22;10958;50.892;3.992;2023-06-24T13:33:02;29.60;99.90
21592;DHT22;10958;50.892;3.992;2023-06-24T13:35:29;29.40;99.90
21592;DHT22;10958;50.892;3.992;2023-06-24T13:37:55;29.00;99.90
21592;DHT22;10958;50.892;3.992;2023-06-24T13:40:25;28.80;99.90
21592;DHT22;10958;50.892;3.992;2023-06-24T13:42:53;28.80;99.90
21592;DHT22;10958;50.892;3.992;2023-06-24T13:45:19;29.10;99.90
21592;DHT22;10958;50.892;3.992;2023-06-24T13:47:47;28.80;99.90
21592;DHT22;10958;50.892;3.992;2023-06-24T13:50:15;28.60;99.90
21592;DHT22;10958;50.892;3.992;2023-06-24T13:52:41;28.90;99.90
21592;DHT22;10958;50.892;3.992;2023-06-24T13:55:07;29.20;99.90
21592;DHT22;10958;50.892;3.992;2023-06-24T13:57:33;29.40;99.90
21592;DHT22;10958;50.892;3.992;2023-06-24T13:59:59;29.60;99.90
21592;DHT22;10958;50.892;3.992;2023-06-24T14:02:24;29.20;99.90
21592;DHT22;10958;50.892;3.992;2023-06-24T14:04:51;29.30;99.90
21592;DHT22;10958;50.892;3.992;2023-06-24T14:07:16;29.50;99.90
21592;DHT22;10958;50.892;3.992;2023-06-24T14:09:42;29.30;99.90
21592;DHT22;10958;50.892;3.992;2023-06-24T14:12:09;28.90;99.90
21592;DHT22;10958;50.892;3.992;2023-06-24T14:14:36;28.90;99.90
21592;DHT22;10958;50.892;3.992;2023-06-24T14:17:07;28.90;99.90
21592;DHT22;10958;50.892;3.992;2023-06-24T14:19:35;28.70;99.90
21592;DHT22;10958;50.892;3.992;2023-06-24T14:22:01;29.00;99.90
21592;DHT22;10958;50.892;3.992;2023-06-24T14:24:28;29.30;99.90
21592;DHT22;10958;50.892;3.992;2023-06-24T14:26:54;29.50;99.90
21592;DHT22;10958;50.892;3.992;2023-06-24T14:29:20;29.50;99.90
21592;DHT22;10958;50.892;3.992;2023-06-24T14:31:45;29.60;99.90
21592;DHT22;10958;50.892;3.992;2023-06-24T14:34:11;29.70;99.90
21592;DHT22;10958;50.892;3.992;2023-06-24T14:36:37;30.00;99.90
21592;DHT22;10958;50.892;3.992;2023-06-24T14:39:07;30.10;99.90
21592;DHT22;10958;50.892;3.992;2023-06-24T14:41:33;30.00;99.90
21592;DHT22;10958;50.892;3.992;2023-06-24T14:43:59;29.80;99.90
21592;DHT22;10958;50.892;3.992;2023-06-24T14:46:25;29.80;99.90
21592;DHT22;10958;50.892;3.992;2023-06-24T14:48:51;29.40;99.90
21592;DHT22;10958;50.892;3.992;2023-06-24T14:51:17;29.40;99.90
21592;DHT22;10958;50.892;3.992;2023-06-24T14:53:42;29.10;99.90
21592;DHT22;10958;50.892;3.992;2023-06-24T14:56:08;28.80;99.90
21592;DHT22;10958;50.892;3.992;2023-06-24T14:58:34;28.90;99.90
21592;DHT22;10958;50.892;3.992;2023-06-24T15:01:02;28.50;99.90
21592;DHT22;10958;50.892;3.992;2023-06-24T15:03:28;28.30;99.90
21592;DHT22;10958;50.892;3.992;2023-06-24T15:05:54;28.50;99.90
21592;DHT22;10958;50.892;3.992;2023-06-24T15:08:22;28.50;99.90
21592;DHT22;10958;50.892;3.992;2023-06-24T15:10:52;28.70;99.90
21592;DHT22;10958;50.892;3.992;2023-06-24T15:13:18;28.80;99.90
21592;DHT22;10958;50.892;3.992;2023-06-24T15:15:44;28.80;99.90
21592;DHT22;10958;50.892;3.992;2023-06-24T15:18:10;29.00;99.90
21592;DHT22;10958;50.892;3.992;2023-06-24T15:20:40;29.00;99.90
21592;DHT22;10958;50.892;3.992;2023-06-24T15:23:05;29.20;99.90
21592;DHT22;10958;50.892;3.992;2023-06-24T15:25:33;29.40;99.90
21592;DHT22;10958;50.892;3.992;2023-06-24T15:28:00;29.20;99.90
21592;DHT22;10958;50.892;3.992;2023-06-24T15:30:26;29.30;99.90
21592;DHT22;10958;50.892;3.992;2023-06-24T15:32:52;29.10;99.90
21592;DHT22;10958;50.892;3.992;2023-06-24T15:35:18;29.30;99.90
21592;DHT22;10958;50.892;3.992;2023-06-24T15:37:44;29.20;99.90
21592;DHT22;10958;50.892;3.992;2023-06-24T15:40:10;29.30;99.90
21592;DHT22;10958;50.892;3.992;2023-06-24T15:42:36;29.30;99.90
21592;DHT22;10958;50.892;3.992;2023-06-24T15:45:04;29.20;99.90
21592;DHT22;10958;50.892;3.992;2023-06-24T15:47:30;29.20;99.90
21592;DHT22;10958;50.892;3.992;2023-06-24T15:49:56;29.40;99.90
21592;DHT22;10958;50.892;3.992;2023-06-24T15:52:22;29.30;99.90
21592;DHT22;10958;50.892;3.992;2023-06-24T15:54:48;29.40;99.90
21592;DHT22;10958;50.892;3.992;2023-06-24T15:57:14;29.60;99.90
21592;DHT22;10958;50.892;3.992;2023-06-24T15:59:40;29.80;99.90
21592;DHT22;10958;50.892;3.992;2023-06-24T16:02:06;29.80;99.90
21592;DHT22;10958;50.892;3.992;2023-06-24T16:04:32;29.60;99.90
21592;DHT22;10958;50.892;3.992;2023-06-24T16:06:57;29.60;99.90
21592;DHT22;10958;50.892;3.992;2023-06-24T16:09:23;29.50;99.90